Airfield :
LOGIN :

Register | Disclaimer

   EN    FR    IT 

 










Legend :    VFR   Marginal VFR   IFR   Intensive IFR   Very Intensive IFR
Visi :
Ceiling :
>= 8 km
>= 3000ft
5 to 8 km
1000 to 3000 ft
1500m to 5 km
500 to 1000 ft
800 to 1500m
200 to 500 ft
< 800m
< 200 ft
Symbols :   Thunderstorms  Fog  Heavy snow  Heavy precipitations  Wind > 20 kt
SIGMETs :     Misc.  Thunderstorms  Icing  Turbulence  Mountain Waves  Volcanic Ashes







- Airport Elevation : 465 ft
- IATA code : LEJ


EDDP - Leipzig Halle

CURRENT METAR :
  • 222150Z 33012KT 9999 FEW060CB SCT090 BKN140 18/12 Q1012 NOSIG

EXPIRED METARs :
  • 222120Z 32007KT CAVOK 18/12 Q1012 NOSIG
  • 222050Z 33011KT 210V340 CAVOK 19/12 Q1012 TEMPO 32020G30KT
  • 222020Z 15007KT CAVOK 18/12 Q1011 TEMPO 32020G30KT
  • 221950Z 14006KT CAVOK 18/11 Q1011 TEMPO 32020G30KT
  • 221920Z 14008KT CAVOK 18/12 Q1011 TEMPO 32020G30KT

TAF TAF EDDP
Valid from the 22 at 18:00 until the 23 at 18:00 UTC


221700Z 2218/2318 10005KT CAVOK
TEMPO 2219/2223 24020G45KT 4000 TSRA BKN030CB
BECMG 2220/2223 23007KT
BECMG 2305/2308 26012KT
TEMPO 2307/2314 26015G25KT SHRA BKN030CB
No reported NOTAMs for that airfield.



MET'MAP, your aeronautical weather chart ! - Copyright ORBIFLY December 2007 - Disclaimer

ORBIFLY MET'MAP TEAM :

Programming & Development : Alexandra Zaïnal
Concept & Development : Baudouin d'Aumeries
Co-Development & Prog : Marc-Olivier Méhu
Technical & hardware support : Manuel Goepfert

Contact : metmap@orbifly.com




SOURCES & CREDITS :

   NOAA